Time;durP1;ratioP1;P1;durP2;ratioP2;P2;SDS_P1;SDS_P2;PMS_P1;PMS_P2;Temp;Humidity;BMP_temperature;BMP_pressure;BME280_temperature;BME280_humidity;BME280_pressure;Samples;Min_cycle;Max_cycle;Signal;HPM_P1;HPM_P2
2021/12/16 00:10:04;;;;;;;9.20;8.27;;;11.50;66.70;;;-142.21;100.00;112049.66;5009887;28;20446;-75
2021/12/16 00:32:18;;;;;;;9.77;8.77;;;11.40;67.60;;;-142.21;100.00;112049.66;4989039;28;20442;-75
2021/12/16 00:34:46;;;;;;;8.43;7.60;;;11.20;67.80;;;-142.21;100.00;112049.66;5008033;28;20430;-77
2021/12/16 00:37:14;;;;;;;9.70;8.27;;;11.20;68.00;;;-142.21;100.00;112049.66;5012263;28;20537;-76
2021/12/16 00:39:44;;;;;;;9.00;8.10;;;11.30;67.60;;;-142.21;100.00;112049.66;5012960;28;20446;-76
2021/12/16 00:42:27;;;;;;;8.67;7.80;;;11.30;67.50;;;-142.21;100.00;112049.66;5012264;28;20477;-76
2021/12/16 00:45:23;;;;;;;8.67;7.87;;;11.30;67.40;;;-142.21;100.00;112049.66;5013067;28;20856;-76
2021/12/16 00:47:57;;;;;;;8.57;7.77;;;11.40;67.50;;;-142.21;100.00;112049.66;5010959;28;20450;-77
2021/12/16 00:56:02;;;;;;;9.63;8.63;;;11.20;67.70;;;-142.21;100.00;112049.66;5011198;28;20620;-76
2021/12/16 00:58:39;;;;;;;10.97;9.90;;;11.20;67.80;;;-142.21;100.00;112049.66;5010815;28;20482;-75
2021/12/16 01:01:18;;;;;;;10.63;9.43;;;11.10;67.60;;;-142.21;100.00;112049.66;5007578;28;20438;-75
2021/12/16 01:03:54;;;;;;;10.70;9.67;;;10.90;68.10;;;-142.21;100.00;112049.66;5011504;28;20449;-77
2021/12/16 01:06:38;;;;;;;9.60;8.60;;;10.80;68.80;;;-142.21;100.00;112049.66;5012284;28;20448;-76
2021/12/16 01:34:21;;;;;;;8.73;7.87;;;11.20;68.40;;;-142.21;100.00;112049.66;5009888;28;20469;-75
2021/12/16 01:42:45;;;;;;;7.93;7.23;;;11.20;68.40;;;-142.21;100.00;112049.66;4996137;28;20466;-76
2021/12/16 01:45:38;;;;;;;8.63;7.83;;;11.30;68.20;;;-142.21;100.00;112049.66;4995653;28;20445;-76
2021/12/16 01:48:53;;;;;;;8.13;7.17;;;11.30;68.40;;;-142.21;100.00;112049.66;5008457;28;20544;-74
2021/12/16 01:51:21;;;;;;;8.43;7.07;;;11.20;68.30;;;-142.21;100.00;112049.66;5014789;28;20446;-77
2021/12/16 01:54:30;;;;;;;8.10;7.30;;;11.20;68.40;;;-142.21;100.00;112049.66;5015512;28;20516;-77
2021/12/16 01:57:06;;;;;;;8.03;7.23;;;11.30;68.30;;;-142.21;100.00;112049.66;5015074;28;20482;-77
2021/12/16 01:59:36;;;;;;;7.27;6.57;;;11.30;68.40;;;-142.21;100.00;112049.66;5015201;28;20533;-76
2021/12/16 02:02:15;;;;;;;7.40;6.70;;;11.30;68.10;;;-142.21;100.00;112049.66;5013226;28;20484;-75
2021/12/16 02:05:07;;;;;;;6.73;6.13;;;11.30;68.10;;;-142.21;100.00;112049.66;5005792;28;20578;-76
2021/12/16 02:07:51;;;;;;;6.80;6.20;;;11.30;68.10;;;-142.21;100.00;112049.66;4999856;28;20447;-77
2021/12/16 02:10:28;;;;;;;7.17;5.97;;;11.30;68.20;;;-142.21;100.00;112049.66;5008298;28;20446;-75
2021/12/16 02:13:12;;;;;;;7.10;6.20;;;11.30;68.20;;;-142.21;100.00;112049.66;4995284;28;20869;-77
2021/12/16 02:29:45;;;;;;;5.93;5.37;;;11.20;68.30;;;-142.21;100.00;112049.66;5002581;28;20433;-75
2021/12/16 02:32:29;;;;;;;7.57;6.77;;;11.20;68.70;;;-142.21;100.00;112049.66;5014090;28;20797;-77
2021/12/16 02:35:11;;;;;;;6.90;6.30;;;11.20;69.20;;;-142.21;100.00;112049.66;5012419;28;20513;-76
2021/12/16 02:37:46;;;;;;;8.10;7.07;;;11.20;68.20;;;-142.21;100.00;112049.66;5014658;28;20453;-77
2021/12/16 02:40:16;;;;;;;7.23;6.53;;;11.20;68.10;;;-142.21;100.00;112049.66;5015071;28;20438;-77
2021/12/16 02:42:55;;;;;;;7.33;6.30;;;11.20;67.80;;;-142.21;100.00;112049.66;5014010;28;20488;-77
2021/12/16 02:48:33;;;;;;;6.83;6.13;;;11.20;69.10;;;-142.21;100.00;112049.66;5000011;28;20913;-76
2021/12/16 02:51:05;;;;;;;7.30;6.60;;;11.20;68.30;;;-142.21;100.00;112049.66;5001821;28;20462;-76
2021/12/16 02:53:38;;;;;;;7.13;6.43;;;11.20;68.00;;;-142.21;100.00;112049.66;5014417;28;20590;-76
2021/12/16 02:56:06;;;;;;;7.03;6.33;;;11.20;68.50;;;-142.21;100.00;112049.66;5012446;28;20501;-75
2021/12/16 02:58:36;;;;;;;6.97;6.27;;;11.20;68.50;;;-142.21;100.00;112049.66;4979412;28;20454;-76
2021/12/16 03:01:10;;;;;;;8.40;7.60;;;11.20;68.30;;;-142.21;100.00;112049.66;5013235;28;20448;-75
2021/12/16 03:03:39;;;;;;;7.90;7.10;;;11.20;68.40;;;-142.21;100.00;112049.66;5013465;28;20501;-75
2021/12/16 03:06:07;;;;;;;8.77;7.87;;;11.20;68.30;;;-142.21;100.00;112049.66;5003035;28;20459;-75
2021/12/16 03:08:37;;;;;;;7.93;7.20;;;11.10;68.20;;;-142.21;100.00;112049.66;4995157;28;20458;-76
2021/12/16 03:11:19;;;;;;;7.93;7.13;;;11.10;68.40;;;-142.21;100.00;112049.66;5012302;28;20481;-76
2021/12/16 03:14:04;;;;;;;8.83;7.57;;;11.10;68.60;;;-142.21;100.00;112049.66;5013000;28;20474;-75
2021/12/16 03:16:41;;;;;;;8.90;8.00;;;11.00;68.50;;;-142.21;100.00;112049.66;4999081;28;20473;-77
2021/12/16 03:19:16;;;;;;;7.60;6.90;;;11.00;68.80;;;-142.21;100.00;112049.66;5009674;28;20509;-75
2021/12/16 03:21:48;;;;;;;8.53;7.73;;;11.00;69.00;;;-142.21;100.00;112049.66;5007391;28;20802;-74
2021/12/16 03:24:40;;;;;;;9.40;7.90;;;10.90;69.50;;;-142.21;100.00;112049.66;5012309;28;20854;-77
2021/12/16 03:27:37;;;;;;;8.63;7.50;;;10.90;69.10;;;-142.21;100.00;112049.66;4998828;28;20458;-77
2021/12/16 03:33:23;;;;;;;8.37;7.47;;;10.80;69.60;;;-142.21;100.00;112049.66;4980349;28;20934;-76
2021/12/16 03:36:04;;;;;;;10.50;8.20;;;10.90;69.50;;;-142.21;100.00;112049.66;5012590;28;20465;-75
2021/12/16 03:38:33;;;;;;;9.77;8.17;;;10.80;68.90;;;-142.21;100.00;112049.66;5012670;28;20442;-76
2021/12/16 03:41:03;;;;;;;8.47;7.67;;;10.80;69.40;;;-142.21;100.00;112049.66;5012356;28;20529;-76
2021/12/16 03:43:31;;;;;;;8.23;7.43;;;10.90;69.80;;;-142.21;100.00;112049.66;5011756;28;20545;-76
2021/12/16 03:48:59;;;;;;;8.67;7.77;;;10.90;69.40;;;-142.21;100.00;112049.66;5012005;28;20945;-77
2021/12/16 03:51:32;;;;;;;9.90;7.80;;;10.80;69.60;;;-142.21;100.00;112049.66;5012739;28;20461;-75
2021/12/16 03:54:07;;;;;;;8.93;7.30;;;10.80;69.80;;;-142.21;100.00;112049.66;5000741;28;20475;-76
2021/12/16 03:56:37;;;;;;;9.70;7.70;;;10.80;70.40;;;-142.21;100.00;112049.66;5003758;28;20896;-76
2021/12/16 03:59:06;;;;;;;7.77;6.97;;;10.80;70.50;;;-142.21;100.00;112049.66;5004227;28;20453;-75
2021/12/16 04:01:34;;;;;;;9.53;8.63;;;10.80;70.00;;;-142.21;100.00;112049.66;5011816;28;20545;-77
2021/12/16 04:04:01;;;;;;;8.20;7.20;;;10.80;69.80;;;-142.21;100.00;112049.66;5011786;28;20861;-77
2021/12/16 04:06:32;;;;;;;9.00;7.73;;;10.90;69.80;;;-142.21;100.00;112049.66;5010368;28;20957;-77
2021/12/16 04:09:00;;;;;;;9.20;8.30;;;10.90;69.80;;;-142.21;100.00;112049.66;5011175;28;20541;-76
2021/12/16 04:11:38;;;;;;;10.33;9.00;;;11.00;69.20;;;-142.21;100.00;112049.66;5011622;28;20541;-76
2021/12/16 04:14:10;;;;;;;9.77;8.77;;;10.90;69.40;;;-142.21;100.00;112049.66;4999020;28;20843;-77
2021/12/16 04:16:42;;;;;;;10.53;9.47;;;10.90;69.50;;;-142.21;100.00;112049.66;5012433;28;20445;-76
2021/12/16 04:19:14;;;;;;;10.43;9.33;;;10.90;69.60;;;-142.21;100.00;112049.66;5009967;28;22043;-75
2021/12/16 04:21:47;;;;;;;10.97;9.77;;;10.80;69.60;;;-142.21;100.00;112049.66;4999232;28;20489;-76
2021/12/16 04:24:16;;;;;;;10.73;9.70;;;10.70;70.10;;;-142.21;100.00;112049.66;5011540;28;20473;-77
2021/12/16 04:26:46;;;;;;;11.13;9.50;;;10.70;70.40;;;-142.21;100.00;112049.66;5009239;28;20520;-76
2021/12/16 04:29:17;;;;;;;11.13;10.03;;;10.80;69.90;;;-142.21;100.00;112049.66;5011484;28;20791;-76
2021/12/16 04:31:46;;;;;;;11.37;10.27;;;10.70;69.80;;;-142.21;100.00;112049.66;5012037;28;20446;-76
2021/12/16 04:34:14;;;;;;;11.50;10.30;;;10.70;70.20;;;-142.21;100.00;112049.66;5011384;28;20579;-76
2021/12/16 04:36:41;;;;;;;12.00;10.67;;;10.60;70.00;;;-142.21;100.00;112049.66;4984662;28;20453;-77
2021/12/16 04:39:21;;;;;;;11.47;10.27;;;10.60;69.90;;;-142.21;100.00;112049.66;5011637;28;20552;-76
2021/12/16 04:41:50;;;;;;;11.63;9.80;;;10.60;70.30;;;-142.21;100.00;112049.66;4973081;28;20496;-76
2021/12/16 04:44:19;;;;;;;9.97;8.97;;;10.40;70.50;;;-142.21;100.00;112049.66;5005271;28;20447;-76
2021/12/16 04:46:48;;;;;;;10.40;9.30;;;10.20;70.90;;;-142.21;100.00;112049.66;5004188;28;20454;-76
2021/12/16 04:49:16;;;;;;;10.47;9.03;;;10.30;70.90;;;-142.21;100.00;112049.66;4999279;28;20508;-75
2021/12/16 04:51:50;;;;;;;10.93;7.50;;;10.20;70.50;;;-142.21;100.00;112049.66;5007206;28;20464;-75
2021/12/16 04:54:23;;;;;;;9.90;7.73;;;10.30;70.60;;;-142.21;100.00;112049.66;5010591;28;20473;-77
2021/12/16 04:56:53;;;;;;;8.73;7.53;;;10.40;70.40;;;-142.21;100.00;112049.66;5011451;28;20449;-77
2021/12/16 04:59:23;;;;;;;8.13;7.07;;;10.50;70.20;;;-142.21;100.00;112049.66;5011518;28;20554;-76
2021/12/16 05:01:54;;;;;;;7.23;6.53;;;10.50;69.50;;;-142.21;100.00;112049.66;5010263;28;20466;-76
2021/12/16 05:04:22;;;;;;;7.57;6.77;;;10.40;69.50;;;-142.21;100.00;112049.66;5011949;28;20521;-76
2021/12/16 05:06:49;;;;;;;7.33;6.23;;;10.50;69.50;;;-142.21;100.00;112049.66;4998200;28;20458;-77
2021/12/16 05:09:45;;;;;;;7.83;6.33;;;10.50;69.40;;;-142.21;100.00;112049.66;4989636;28;20787;-76
2021/12/16 05:12:08;;;;;;;7.17;6.47;;;10.50;69.00;;;-142.21;100.00;112049.66;5010493;28;20541;-76
2021/12/16 05:14:37;;;;;;;7.50;6.67;;;10.50;69.20;;;-142.21;100.00;112049.66;5008604;28;20989;-76
2021/12/16 05:17:11;;;;;;;8.03;6.00;;;10.50;69.30;;;-142.21;100.00;112049.66;5014643;28;20489;-77
2021/12/16 05:19:48;;;;;;;7.17;6.47;;;10.60;69.10;;;-142.21;100.00;112049.66;5011745;28;20528;-75
2021/12/16 05:24:56;;;;;;;6.40;5.80;;;10.60;69.10;;;-142.21;100.00;112049.66;4971994;28;20533;-75
2021/12/16 05:27:24;;;;;;;6.77;6.00;;;10.60;68.80;;;-142.21;100.00;112049.66;5010260;28;20897;-76
2021/12/16 05:29:52;;;;;;;7.43;6.30;;;10.70;68.90;;;-142.21;100.00;112049.66;5014355;28;20446;-74
2021/12/16 05:32:20;;;;;;;7.43;6.30;;;10.70;67.90;;;-142.21;100.00;112049.66;5012932;28;21110;-74
2021/12/16 05:34:47;;;;;;;6.80;5.70;;;10.70;68.30;;;-142.21;100.00;112049.66;5014712;28;20485;-75
2021/12/16 05:37:14;;;;;;;7.37;6.07;;;10.70;67.90;;;-142.21;100.00;112049.66;4995611;28;20453;-75
2021/12/16 05:39:42;;;;;;;6.93;6.10;;;10.70;67.90;;;-142.21;100.00;112049.66;5007782;28;20854;-75
2021/12/16 05:42:10;;;;;;;6.50;5.80;;;10.70;67.90;;;-142.21;100.00;112049.66;5013941;28;20564;-75
2021/12/16 05:44:37;;;;;;;6.60;5.90;;;10.80;67.90;;;-142.21;100.00;112049.66;5014714;28;20536;-76
2021/12/16 05:47:07;;;;;;;6.37;5.77;;;10.80;67.70;;;-142.21;100.00;112049.66;5014637;28;20446;-74
2021/12/16 05:49:34;;;;;;;6.33;5.73;;;10.80;67.60;;;-142.21;100.00;112049.66;5014867;28;20533;-75
2021/12/16 05:52:02;;;;;;;7.30;6.17;;;10.80;67.60;;;-142.21;100.00;112049.66;5014896;28;20548;-76
2021/12/16 05:54:29;;;;;;;6.67;5.73;;;10.80;67.50;;;-142.21;100.00;112049.66;4996027;28;20921;-76
2021/12/16 05:56:56;;;;;;;6.20;5.60;;;10.80;67.50;;;-142.21;100.00;112049.66;5014696;28;20481;-74
2021/12/16 05:59:24;;;;;;;6.97;6.27;;;10.80;67.60;;;-142.21;100.00;112049.66;4995110;28;20448;-75
2021/12/16 06:01:52;;;;;;;7.20;5.60;;;10.80;67.20;;;-142.21;100.00;112049.66;5013680;28;20461;-75
2021/12/16 06:04:21;;;;;;;5.83;5.30;;;10.70;67.10;;;-142.21;100.00;112049.66;5013965;28;20446;-74
2021/12/16 06:06:48;;;;;;;6.03;5.43;;;10.70;67.00;;;-142.21;100.00;112049.66;4997513;28;20443;-75
2021/12/16 06:09:15;;;;;;;5.70;5.10;;;10.80;67.10;;;-142.21;100.00;112049.66;5005815;28;20980;-75
2021/12/16 06:11:44;;;;;;;5.37;4.87;;;10.60;67.30;;;-142.21;100.00;112049.66;5013943;28;20448;-76
2021/12/16 06:14:22;;;;;;;6.00;5.00;;;10.70;67.90;;;-142.21;100.00;112049.66;5014027;28;20570;-75
2021/12/16 06:22:45;;;;;;;5.80;5.23;;;10.90;67.30;;;-142.21;100.00;112049.66;5014538;28;20524;-77
2021/12/16 06:28:04;;;;;;;6.00;5.40;;;10.90;67.20;;;-142.21;100.00;112049.66;5012729;28;20449;-75
2021/12/16 06:30:37;;;;;;;5.77;5.13;;;10.90;66.80;;;-142.21;100.00;112049.66;5000877;28;20530;-76
2021/12/16 06:33:09;;;;;;;5.80;5.23;;;10.80;66.50;;;-142.21;100.00;112049.66;5006345;28;20446;-76
2021/12/16 06:35:38;;;;;;;5.90;5.30;;;10.80;66.70;;;-142.21;100.00;112049.66;4994964;28;20526;-75
2021/12/16 06:38:07;;;;;;;5.97;5.23;;;10.80;67.20;;;-142.21;100.00;112049.66;5012738;28;20532;-76
2021/12/16 06:40:34;;;;;;;5.37;4.87;;;10.90;67.10;;;-142.21;100.00;112049.66;5013710;28;20939;-76
2021/12/16 06:43:03;;;;;;;7.13;5.50;;;10.80;66.20;;;-142.21;100.00;112049.66;4994647;28;20553;-76
2021/12/16 06:45:35;;;;;;;6.00;5.30;;;10.90;66.40;;;-142.21;100.00;112049.66;4994654;28;21022;-76
2021/12/16 06:48:08;;;;;;;7.13;5.47;;;10.90;66.10;;;-142.21;100.00;112049.66;4994552;28;20446;-75
2021/12/16 06:50:45;;;;;;;6.63;5.70;;;10.80;66.20;;;-142.21;100.00;112049.66;4994349;28;20434;-75
2021/12/16 06:53:20;;;;;;;6.27;5.67;;;10.80;66.30;;;-142.21;100.00;112049.66;4988152;28;20845;-76
2021/12/16 06:55:56;;;;;;;6.33;5.63;;;10.70;66.40;;;-142.21;100.00;112049.66;4996389;28;20542;-75
2021/12/16 06:58:32;;;;;;;7.00;5.73;;;10.60;66.40;;;-142.21;100.00;112049.66;5010104;28;21067;-74
2021/12/16 07:01:10;;;;;;;7.33;6.10;;;10.60;67.20;;;-142.21;100.00;112049.66;5013569;28;20437;-76
2021/12/16 07:03:46;;;;;;;6.73;6.03;;;10.60;67.10;;;-142.21;100.00;112049.66;4994785;28;20438;-78
2021/12/16 07:06:20;;;;;;;7.77;6.57;;;10.70;66.30;;;-142.21;100.00;112049.66;4993679;28;20907;-78
2021/12/16 07:08:50;;;;;;;6.63;5.70;;;10.50;66.40;;;-142.21;100.00;112049.66;5005964;28;20478;-78
2021/12/16 07:11:17;;;;;;;9.03;6.33;;;10.50;66.80;;;-142.21;100.00;112049.66;5002221;28;20487;-76
2021/12/16 07:13:55;;;;;;;7.30;6.60;;;10.60;66.40;;;-142.21;100.00;112049.66;4994571;28;20539;-77
2021/12/16 07:16:27;;;;;;;7.73;6.67;;;10.60;66.30;;;-142.21;100.00;112049.66;4993789;28;20984;-78
2021/12/16 07:18:54;;;;;;;7.23;6.30;;;10.50;67.50;;;-142.21;100.00;112049.66;4994205;28;20493;-76
2021/12/16 07:21:26;;;;;;;6.93;6.20;;;10.40;66.90;;;-142.21;100.00;112049.66;4993309;28;20454;-75
2021/12/16 07:23:59;;;;;;;8.73;7.20;;;10.30;67.00;;;-142.21;100.00;112049.66;4994598;28;20643;-78
2021/12/16 07:26:26;;;;;;;6.93;6.23;;;10.30;67.20;;;-142.21;100.00;112049.66;4993750;28;20514;-77
2021/12/16 07:28:56;;;;;;;6.87;6.07;;;10.30;67.40;;;-142.21;100.00;112049.66;5013691;28;20530;-78
2021/12/16 07:31:23;;;;;;;7.70;6.70;;;10.40;67.60;;;-142.21;100.00;112049.66;5013423;28;20448;-76
2021/12/16 07:34:09;;;;;;;7.40;6.67;;;10.30;67.00;;;-142.21;100.00;112049.66;5000525;28;21017;-76
2021/12/16 07:36:42;;;;;;;8.77;7.20;;;10.40;67.30;;;-142.21;100.00;112049.66;5001658;28;20984;-76
2021/12/16 07:39:13;;;;;;;7.57;6.77;;;10.40;67.20;;;-142.21;100.00;112049.66;5010300;28;20857;-75
2021/12/16 07:41:43;;;;;;;8.53;7.60;;;10.40;67.20;;;-142.21;100.00;112049.66;5009152;28;20978;-76
2021/12/16 07:44:10;;;;;;;8.37;7.57;;;10.30;67.30;;;-142.21;100.00;112049.66;5013711;28;20435;-76
2021/12/16 07:46:39;;;;;;;8.83;7.93;;;10.30;67.50;;;-142.21;100.00;112049.66;5013403;28;20450;-77
2021/12/16 07:49:08;;;;;;;11.10;8.23;;;10.30;67.50;;;-142.21;100.00;112049.66;5013384;28;20541;-78
2021/12/16 07:51:36;;;;;;;9.33;7.87;;;10.30;68.30;;;-142.21;100.00;112049.66;5013487;28;20827;-77
2021/12/16 07:54:06;;;;;;;9.10;7.40;;;10.40;67.90;;;-142.21;100.00;112049.66;5012701;28;20525;-77
2021/12/16 07:56:34;;;;;;;9.80;8.30;;;10.50;67.40;;;-142.21;100.00;112049.66;5013014;28;20521;-76
2021/12/16 07:59:01;;;;;;;10.03;8.30;;;10.50;67.20;;;-142.21;100.00;112049.66;5012509;28;20504;-77
2021/12/16 08:01:28;;;;;;;9.67;8.27;;;10.40;67.20;;;-142.21;100.00;112049.66;5012452;28;20545;-78
2021/12/16 08:03:58;;;;;;;9.57;7.87;;;10.40;67.30;;;-142.21;100.00;112049.66;5012463;28;20537;-78
2021/12/16 08:06:28;;;;;;;8.60;7.70;;;10.40;67.50;;;-142.21;100.00;112049.66;5012458;28;20435;-78
2021/12/16 08:09:01;;;;;;;9.23;8.23;;;10.40;67.50;;;-142.21;100.00;112049.66;5012803;28;20540;-77
2021/12/16 08:11:35;;;;;;;8.40;7.47;;;10.50;67.50;;;-142.21;100.00;112049.66;5013190;28;20462;-78
2021/12/16 08:14:03;;;;;;;9.40;7.63;;;10.50;67.40;;;-142.21;100.00;112049.66;5012639;28;20465;-77
2021/12/16 08:16:32;;;;;;;9.47;7.47;;;10.60;67.10;;;-142.21;100.00;112049.66;5013022;28;20486;-77
2021/12/16 08:19:00;;;;;;;8.03;7.13;;;10.70;66.90;;;-142.21;100.00;112049.66;5013046;28;20852;-77
2021/12/16 08:21:29;;;;;;;10.13;7.60;;;10.80;66.80;;;-142.21;100.00;112049.66;5012151;28;20497;-78
2021/12/16 08:23:59;;;;;;;9.90;8.47;;;10.80;66.80;;;-142.21;100.00;112049.66;5012680;28;20450;-77
2021/12/16 08:26:28;;;;;;;12.87;9.87;;;10.90;67.20;;;-142.21;100.00;112049.66;4992260;28;20435;-78
2021/12/16 08:28:57;;;;;;;12.13;10.40;;;11.00;66.60;;;-142.21;100.00;112049.66;4992966;28;20450;-77
2021/12/16 08:31:26;;;;;;;15.93;13.10;;;11.00;67.10;;;-142.21;100.00;112049.66;4992741;28;20533;-77
2021/12/16 08:33:54;;;;;;;15.03;13.17;;;11.10;66.40;;;-142.21;100.00;112049.66;4992860;28;20466;-77
2021/12/16 08:36:21;;;;;;;11.57;8.83;;;11.10;66.40;;;-142.21;100.00;112049.66;5001613;28;21002;-79
2021/12/16 08:38:49;;;;;;;15.20;10.50;;;11.20;66.10;;;-142.21;100.00;112049.66;5004564;28;20871;-77
2021/12/16 08:41:21;;;;;;;9.20;7.60;;;11.20;65.70;;;-142.21;100.00;112049.66;4992604;28;20509;-78
2021/12/16 08:43:49;;;;;;;10.50;7.87;;;11.20;65.50;;;-142.21;100.00;112049.66;5001145;28;20520;-78
2021/12/16 08:46:22;;;;;;;9.77;8.77;;;11.20;65.30;;;-142.21;100.00;112049.66;5011880;28;20450;-78
2021/12/16 08:48:50;;;;;;;9.33;8.37;;;11.20;65.40;;;-142.21;100.00;112049.66;4997258;28;20462;-78
2021/12/16 08:51:23;;;;;;;13.40;12.20;;;11.20;65.80;;;-142.21;100.00;112049.66;5015788;28;20462;-77
2021/12/16 08:53:51;;;;;;;9.93;9.03;;;11.30;65.90;;;-142.21;100.00;112049.66;5011655;28;20504;-78
2021/12/16 08:56:19;;;;;;;7.90;7.10;;;11.40;65.30;;;-142.21;100.00;112049.66;5016365;28;20544;-77
2021/12/16 08:58:47;;;;;;;7.53;6.43;;;11.40;65.50;;;-142.21;100.00;112049.66;5015717;28;20493;-78
2021/12/16 09:01:21;;;;;;;7.93;6.40;;;11.40;65.70;;;-142.21;100.00;112049.66;4996490;28;20832;-77
2021/12/16 09:03:49;;;;;;;7.90;5.90;;;11.50;65.90;;;-142.21;100.00;112049.66;4995782;28;20521;-78
2021/12/16 09:06:17;;;;;;;7.83;6.13;;;11.50;65.30;;;-142.21;100.00;112049.66;4996319;28;20447;-79
2021/12/16 09:08:45;;;;;;;9.57;6.50;;;11.50;64.80;;;-142.21;100.00;112049.66;4996316;28;20451;-78
2021/12/16 09:11:19;;;;;;;6.67;5.97;;;11.50;65.00;;;-142.21;100.00;112049.66;5015580;28;20537;-78
2021/12/16 09:13:48;;;;;;;6.70;6.10;;;11.50;65.20;;;-142.21;100.00;112049.66;4997589;28;20450;-79
2021/12/16 09:16:21;;;;;;;7.43;6.17;;;11.50;65.40;;;-142.21;100.00;112049.66;5015823;28;21013;-78
2021/12/16 09:18:49;;;;;;;9.97;8.43;;;11.60;65.10;;;-142.21;100.00;112049.66;5015036;28;21388;-79
2021/12/16 09:21:21;;;;;;;10.50;9.50;;;11.60;64.80;;;-142.21;100.00;112049.66;5015950;28;20486;-77
2021/12/16 09:23:50;;;;;;;8.00;7.20;;;11.60;64.50;;;-142.21;100.00;112049.66;5015571;28;20450;-78
2021/12/16 09:26:19;;;;;;;8.03;7.27;;;11.50;64.10;;;-142.21;100.00;112049.66;5008122;28;20542;-78
2021/12/16 09:28:47;;;;;;;7.60;6.43;;;11.50;64.50;;;-142.21;100.00;112049.66;5015571;28;20489;-79
2021/12/16 09:31:19;;;;;;;9.60;7.80;;;11.50;64.40;;;-142.21;100.00;112049.66;5015199;28;20508;-78
2021/12/16 09:33:51;;;;;;;8.07;7.20;;;11.50;64.20;;;-142.21;100.00;112049.66;5015745;28;20993;-79
2021/12/16 09:36:26;;;;;;;8.53;7.50;;;11.50;64.10;;;-142.21;100.00;112049.66;5014305;28;20547;-78
2021/12/16 09:38:56;;;;;;;8.60;7.80;;;11.60;64.30;;;-142.21;100.00;112049.66;5010764;28;20447;-78
2021/12/16 09:41:25;;;;;;;9.60;8.60;;;11.60;63.60;;;-142.21;100.00;112049.66;5001725;28;20518;-78
2021/12/16 09:43:55;;;;;;;8.00;7.20;;;11.50;63.80;;;-142.21;100.00;112049.66;4998781;28;20454;-78
2021/12/16 09:46:28;;;;;;;9.80;7.57;;;11.60;64.50;;;-142.21;100.00;112049.66;5009739;28;20500;-78
2021/12/16 09:48:57;;;;;;;8.77;7.87;;;11.60;63.90;;;-142.21;100.00;112049.66;5011422;28;20980;-78
2021/12/16 09:51:29;;;;;;;9.27;8.30;;;11.50;64.00;;;-142.21;100.00;112049.66;5015113;28;20469;-78
2021/12/16 09:54:03;;;;;;;8.43;7.53;;;11.50;64.10;;;-142.21;100.00;112049.66;5015457;28;20513;-78
2021/12/16 09:56:32;;;;;;;9.80;7.70;;;11.50;63.80;;;-142.21;100.00;112049.66;5014906;28;20568;-78
2021/12/16 09:59:04;;;;;;;8.10;7.23;;;11.50;64.10;;;-142.21;100.00;112049.66;5015027;28;20489;-78
2021/12/16 10:01:34;;;;;;;10.90;7.80;;;11.50;64.50;;;-142.21;100.00;112049.66;5013972;28;20533;-79
2021/12/16 10:04:05;;;;;;;9.10;8.20;;;11.50;64.40;;;-142.21;100.00;112049.66;5007657;28;20449;-77
2021/12/16 10:06:36;;;;;;;8.83;7.73;;;11.60;64.30;;;-142.21;100.00;112049.66;5014526;28;20508;-78
2021/12/16 10:09:07;;;;;;;8.23;7.43;;;11.60;63.60;;;-142.21;100.00;112049.66;4995828;28;20471;-78
2021/12/16 10:11:38;;;;;;;9.07;7.90;;;11.60;64.10;;;-142.21;100.00;112049.66;4995334;28;20435;-78
2021/12/16 10:14:20;;;;;;;10.90;9.20;;;11.70;64.30;;;-142.21;100.00;112049.66;4995554;28;20474;-78
2021/12/16 10:19:36;;;;;;;9.77;8.60;;;11.80;63.40;;;-142.21;100.00;112049.66;4994669;28;20438;-77
2021/12/16 10:22:26;;;;;;;14.77;11.33;;;11.80;63.60;;;-142.21;100.00;112049.66;4987919;28;20490;-79
2021/12/16 10:25:15;;;;;;;12.00;10.17;;;11.80;63.40;;;-142.21;100.00;112049.66;5010503;28;20449;-78
2021/12/16 10:27:57;;;;;;;11.13;10.03;;;11.80;63.50;;;-142.21;100.00;112049.66;5014111;28;20522;-78
2021/12/16 10:30:26;;;;;;;9.50;8.20;;;11.90;63.30;;;-142.21;100.00;112049.66;5014540;28;20430;-79
2021/12/16 10:32:55;;;;;;;8.60;7.80;;;11.90;63.30;;;-142.21;100.00;112049.66;5014153;28;20875;-79
2021/12/16 10:35:30;;;;;;;9.53;8.53;;;12.00;63.20;;;-142.21;100.00;112049.66;5014013;28;20446;-79
2021/12/16 10:38:01;;;;;;;9.57;8.57;;;12.00;62.70;;;-142.21;100.00;112049.66;4977175;28;20439;-78
2021/12/16 10:40:40;;;;;;;9.53;8.53;;;11.90;62.70;;;-142.21;100.00;112049.66;4994835;28;20493;-79
2021/12/16 10:43:14;;;;;;;9.43;8.17;;;11.90;63.00;;;-142.21;100.00;112049.66;5001012;28;20818;-78
2021/12/16 10:45:48;;;;;;;9.37;8.43;;;11.90;62.90;;;-142.21;100.00;112049.66;4998946;28;20998;-77
2021/12/16 10:48:27;;;;;;;9.93;8.93;;;12.00;63.00;;;-142.21;100.00;112049.66;5014133;28;20462;-78
2021/12/16 10:51:09;;;;;;;11.67;8.83;;;11.90;62.50;;;-142.21;100.00;112049.66;5007952;28;20478;-78
2021/12/16 10:54:06;;;;;;;12.33;9.87;;;12.00;62.80;;;-142.21;100.00;112049.66;5014195;28;20438;-79
2021/12/16 10:56:49;;;;;;;9.53;8.50;;;12.00;62.00;;;-142.21;100.00;112049.66;5013807;28;20987;-78
2021/12/16 10:59:22;;;;;;;9.57;8.27;;;12.00;62.50;;;-142.21;100.00;112049.66;5011940;28;20442;-78
2021/12/16 11:02:04;;;;;;;10.00;8.93;;;12.00;62.50;;;-142.21;100.00;112049.66;5000123;28;20438;-78
2021/12/16 11:04:46;;;;;;;9.33;8.33;;;12.00;62.20;;;-142.21;100.00;112049.66;5013545;28;20855;-79
2021/12/16 11:07:19;;;;;;;9.40;8.40;;;12.00;62.20;;;-142.21;100.00;112049.66;5013133;28;20537;-78
2021/12/16 11:10:01;;;;;;;10.40;9.30;;;12.00;62.50;;;-142.21;100.00;112049.66;5013675;28;20438;-78
2021/12/16 11:12:49;;;;;;;9.00;8.07;;;11.90;62.70;;;-142.21;100.00;112049.66;5013218;28;20471;-78
2021/12/16 11:15:25;;;;;;;12.67;9.30;;;11.90;62.30;;;-142.21;100.00;112049.66;4996078;28;21007;-78
2021/12/16 11:17:59;;;;;;;13.13;9.00;;;12.00;63.20;;;-142.21;100.00;112049.66;5004345;28;20442;-78
2021/12/16 11:20:36;;;;;;;8.67;7.57;;;12.00;62.80;;;-142.21;100.00;112049.66;5012757;28;20435;-78
2021/12/16 11:23:10;;;;;;;8.83;7.90;;;12.10;62.90;;;-142.21;100.00;112049.66;4994165;28;20435;-77
2021/12/16 11:25:40;;;;;;;12.93;11.47;;;12.20;63.00;;;-142.21;100.00;112049.66;5009179;28;20844;-79
2021/12/16 11:28:16;;;;;;;12.60;9.07;;;12.30;62.60;;;-142.21;100.00;112049.66;5006213;28;20525;-78
2021/12/16 11:30:50;;;;;;;11.40;9.17;;;12.20;62.10;;;-142.21;100.00;112049.66;4999755;28;20454;-78
2021/12/16 11:33:27;;;;;;;9.83;8.83;;;12.20;62.20;;;-142.21;100.00;112049.66;4993545;28;20462;-78
2021/12/16 11:36:08;;;;;;;10.70;9.13;;;12.20;62.00;;;-142.21;100.00;112049.66;4993290;28;20518;-79
2021/12/16 11:38:41;;;;;;;12.67;9.90;;;12.30;61.90;;;-142.21;100.00;112049.66;4992931;28;20435;-78
2021/12/16 11:41:27;;;;;;;10.30;9.27;;;12.30;61.50;;;-142.21;100.00;112049.66;4993066;28;20471;-78
2021/12/16 11:44:14;;;;;;;10.50;9.40;;;12.30;61.40;;;-142.21;100.00;112049.66;5002040;28;20943;-78
2021/12/16 11:46:45;;;;;;;10.77;9.43;;;12.20;61.60;;;-142.21;100.00;112049.66;5012967;28;20444;-78
2021/12/16 11:49:22;;;;;;;10.23;9.13;;;12.40;61.80;;;-142.21;100.00;112049.66;4998812;28;20870;-78
2021/12/16 11:51:57;;;;;;;10.87;9.00;;;12.60;61.40;;;-142.21;100.00;112049.66;4993773;28;20462;-78
2021/12/16 11:54:30;;;;;;;10.43;9.43;;;12.70;61.30;;;-142.21;100.00;112049.66;4993584;28;20446;-78
2021/12/16 11:57:07;;;;;;;11.03;9.87;;;12.80;60.70;;;-142.21;100.00;112049.66;4993985;28;20573;-77
2021/12/16 11:59:40;;;;;;;10.67;9.53;;;12.80;60.20;;;-142.21;100.00;112049.66;4993086;28;20474;-78